Time;durP1;ratioP1;P1;durP2;ratioP2;P2;SDS_P1;SDS_P2;PMS_P1;PMS_P2;Temp;Humidity;BMP_temperature;BMP_pressure;BME280_temperature;BME280_humidity;BME280_pressure;Samples;Min_cycle;Max_cycle;Signal;HPM_P1;HPM_P2
2022/04/10 00:00:43;;;;;;;1.48;0.77;;;5.80;67.30;;;;;;5034231;28;20029;-75
2022/04/10 00:03:09;;;;;;;1.63;0.52;;;5.80;68.10;;;;;;5034159;28;20100;-75
2022/04/10 00:05:35;;;;;;;1.02;0.40;;;5.50;67.20;;;;;;5033648;28;20042;-74
2022/04/10 00:08:01;;;;;;;1.70;0.50;;;5.20;68.20;;;;;;5036563;28;20097;-74
2022/04/10 00:10:27;;;;;;;4.38;0.68;;;5.30;68.40;;;;;;5053782;28;20086;-74
2022/04/10 00:12:52;;;;;;;1.10;0.43;;;5.20;68.00;;;;;;5052118;28;20060;-74
2022/04/10 00:15:18;;;;;;;1.15;0.47;;;5.20;67.90;;;;;;5047950;28;20475;-74
2022/04/10 00:17:44;;;;;;;3.58;0.70;;;4.80;70.10;;;;;;5033717;28;20037;-73
2022/04/10 00:20:11;;;;;;;2.38;0.70;;;4.50;70.10;;;;;;5033594;28;20043;-73
2022/04/10 00:22:44;;;;;;;0.63;0.32;;;4.60;69.40;;;;;;5033645;28;20029;-73
2022/04/10 00:25:18;;;;;;;1.90;0.65;;;4.50;70.00;;;;;;5044737;28;20036;-75
2022/04/10 00:27:44;;;;;;;0.63;0.45;;;4.80;68.70;;;;;;5033433;28;20112;-75
2022/04/10 00:30:12;;;;;;;4.40;0.50;;;5.10;68.30;;;;;;5046039;28;20047;-76
2022/04/10 00:32:38;;;;;;;1.08;0.30;;;5.00;68.40;;;;;;5053276;28;20402;-76
2022/04/10 00:35:06;;;;;;;0.60;0.38;;;4.90;69.30;;;;;;5050993;28;20427;-76
2022/04/10 00:37:36;;;;;;;0.65;0.30;;;4.80;69.60;;;;;;5038285;28;20462;-75
2022/04/10 00:40:05;;;;;;;0.75;0.40;;;4.80;70.80;;;;;;5052801;28;20036;-73
2022/04/10 00:42:32;;;;;;;0.52;0.32;;;5.00;70.80;;;;;;5047144;28;20025;-74
2022/04/10 00:44:57;;;;;;;2.67;0.40;;;4.90;71.40;;;;;;5033636;28;20383;-74
2022/04/10 00:47:23;;;;;;;2.53;0.75;;;5.00;73.40;;;;;;5052392;28;20025;-74
2022/04/10 00:49:49;;;;;;;1.48;0.70;;;5.00;76.70;;;;;;5052776;28;20461;-73
2022/04/10 00:52:15;;;;;;;0.80;0.40;;;4.90;75.30;;;;;;5035229;28;20435;-73
2022/04/10 00:54:41;;;;;;;1.65;0.43;;;4.70;76.00;;;;;;5033359;28;20395;-75
2022/04/10 00:57:07;;;;;;;1.23;0.50;;;4.60;74.50;;;;;;5049206;28;20025;-75
2022/04/10 00:59:32;;;;;;;1.88;1.05;;;4.60;78.00;;;;;;5049673;28;20439;-75
2022/04/10 01:01:58;;;;;;;3.05;0.68;;;4.30;77.10;;;;;;5032833;28;20041;-75
2022/04/10 01:04:25;;;;;;;2.67;0.75;;;4.30;78.10;;;;;;5033439;28;20499;-76
2022/04/10 01:06:52;;;;;;;2.42;0.73;;;4.10;77.70;;;;;;5032959;28;20025;-75
2022/04/10 01:09:17;;;;;;;1.02;0.50;;;4.10;75.10;;;;;;5043693;28;20037;-75
2022/04/10 01:11:43;;;;;;;1.08;0.60;;;4.10;75.50;;;;;;5053003;28;20035;-75
2022/04/10 01:14:09;;;;;;;0.35;0.20;;;3.80;74.20;;;;;;5041580;28;20117;-75
2022/04/10 01:16:35;;;;;;;0.40;0.30;;;3.80;74.50;;;;;;5047866;28;20071;-75
2022/04/10 01:19:05;;;;;;;2.40;0.60;;;4.10;75.00;;;;;;5042635;28;20029;-75
2022/04/10 01:21:39;;;;;;;0.95;0.55;;;4.30;72.80;;;;;;5032845;28;20108;-75
2022/04/10 01:24:06;;;;;;;1.35;0.60;;;4.50;72.50;;;;;;5041893;28;20082;-75
2022/04/10 01:26:32;;;;;;;0.93;0.38;;;4.20;72.90;;;;;;5035839;28;20040;-76
2022/04/10 01:29:08;;;;;;;0.90;0.65;;;4.00;73.20;;;;;;5039579;28;20036;-75
2022/04/10 01:31:35;;;;;;;1.67;0.60;;;4.30;73.50;;;;;;5051793;28;20052;-76
2022/04/10 01:34:05;;;;;;;1.40;0.52;;;4.30;73.40;;;;;;5043947;28;20033;-76
2022/04/10 01:36:32;;;;;;;1.60;0.82;;;4.20;74.20;;;;;;5046216;28;20029;-74
2022/04/10 01:38:59;;;;;;;2.25;0.70;;;4.50;79.90;;;;;;5044662;28;20028;-75
2022/04/10 01:41:26;;;;;;;1.65;0.50;;;4.30;77.30;;;;;;5032422;28;20057;-75
2022/04/10 01:43:53;;;;;;;1.60;0.60;;;4.30;74.60;;;;;;5037729;28;20029;-75
2022/04/10 01:46:21;;;;;;;1.50;0.60;;;4.20;74.50;;;;;;5039220;28;20109;-75
2022/04/10 01:48:47;;;;;;;1.15;0.60;;;4.10;75.20;;;;;;5033245;28;20033;-76
2022/04/10 01:51:13;;;;;;;2.55;0.60;;;4.10;77.60;;;;;;5032021;28;20047;-76
2022/04/10 01:53:39;;;;;;;3.10;0.60;;;4.20;78.00;;;;;;5034709;28;20037;-76
2022/04/10 01:56:06;;;;;;;0.63;0.35;;;4.20;74.20;;;;;;5052534;28;20032;-76
2022/04/10 01:58:36;;;;;;;0.90;0.50;;;4.20;73.00;;;;;;5039994;28;20037;-74
2022/04/10 02:01:06;;;;;;;1.52;0.70;;;4.20;73.50;;;;;;5051981;28;20029;-74
2022/04/10 02:03:33;;;;;;;2.88;0.52;;;4.40;72.80;;;;;;5032241;28;20030;-76
2022/04/10 02:06:02;;;;;;;2.42;0.60;;;4.30;73.10;;;;;;5033023;28;20038;-75
2022/04/10 02:08:31;;;;;;;0.47;0.30;;;4.10;76.50;;;;;;5032090;28;20109;-76
2022/04/10 02:10:57;;;;;;;2.75;0.60;;;4.10;74.30;;;;;;5043366;28;20029;-76
2022/04/10 02:13:24;;;;;;;0.90;0.30;;;4.10;75.00;;;;;;5051608;28;20118;-76
2022/04/10 02:15:50;;;;;;;0.63;0.47;;;4.10;75.00;;;;;;5041345;28;20039;-74
2022/04/10 02:18:16;;;;;;;1.33;0.55;;;4.00;73.40;;;;;;5031984;28;20025;-74
2022/04/10 02:20:42;;;;;;;1.95;0.82;;;4.10;74.30;;;;;;5039886;28;20425;-73
2022/04/10 02:23:08;;;;;;;1.95;0.60;;;4.10;77.20;;;;;;5051616;28;20090;-73
2022/04/10 02:25:34;;;;;;;2.08;0.65;;;4.20;73.90;;;;;;5044365;28;20487;-74
2022/04/10 02:28:00;;;;;;;0.88;0.47;;;4.30;77.50;;;;;;5031345;28;20037;-74
2022/04/10 02:30:26;;;;;;;0.70;0.30;;;4.10;76.80;;;;;;5036687;28;20037;-74
2022/04/10 02:32:51;;;;;;;1.67;0.68;;;3.90;74.00;;;;;;5051069;28;20612;-74
2022/04/10 02:35:17;;;;;;;1.98;0.95;;;3.80;75.10;;;;;;5047810;28;20151;-73
2022/04/10 02:37:46;;;;;;;1.20;0.60;;;4.00;72.10;;;;;;5031795;28;20025;-73
2022/04/10 02:40:16;;;;;;;1.75;0.60;;;3.70;72.60;;;;;;5041530;28;20027;-73
2022/04/10 02:42:42;;;;;;;0.60;0.35;;;3.80;72.40;;;;;;5055522;28;20021;-73
2022/04/10 02:45:08;;;;;;;1.10;0.30;;;3.70;73.00;;;;;;5050010;28;20045;-73
2022/04/10 02:47:34;;;;;;;0.77;0.50;;;3.70;73.00;;;;;;5035591;28;20101;-74
2022/04/10 02:50:00;;;;;;;3.35;0.80;;;4.00;73.40;;;;;;5038725;28;20113;-74
2022/04/10 02:52:26;;;;;;;1.40;0.70;;;4.10;79.50;;;;;;5055253;28;20481;-73
2022/04/10 02:54:52;;;;;;;2.03;0.98;;;4.10;80.20;;;;;;5040464;28;20036;-74
2022/04/10 02:57:17;;;;;;;1.27;0.60;;;4.10;81.40;;;;;;5055411;28;20099;-73
2022/04/10 02:59:43;;;;;;;0.90;0.45;;;4.10;76.90;;;;;;5039249;28;20056;-74
2022/04/10 03:02:09;;;;;;;0.40;0.22;;;3.90;72.10;;;;;;5034994;28;20029;-74
2022/04/10 03:04:34;;;;;;;1.48;0.68;;;4.00;70.90;;;;;;5041780;28;20049;-74
2022/04/10 03:07:00;;;;;;;1.75;0.50;;;4.00;70.50;;;;;;5029524;28;20519;-74
2022/04/10 03:09:26;;;;;;;2.10;0.52;;;4.00;70.40;;;;;;5040607;28;20316;-74
2022/04/10 03:11:51;;;;;;;0.93;0.88;;;4.00;70.50;;;;;;5049278;28;20064;-74
2022/04/10 03:14:17;;;;;;;2.17;0.60;;;4.30;69.40;;;;;;5039071;28;20183;-74
2022/04/10 03:16:43;;;;;;;0.82;0.38;;;4.30;69.40;;;;;;5043301;28;20076;-74
2022/04/10 03:19:09;;;;;;;0.22;0.20;;;4.10;69.90;;;;;;5034937;28;20426;-74
2022/04/10 03:21:35;;;;;;;0.70;0.35;;;4.20;69.60;;;;;;5046792;28;20028;-74
2022/04/10 03:24:01;;;;;;;1.77;0.70;;;3.80;71.10;;;;;;5042244;28;20030;-74
2022/04/10 03:26:28;;;;;;;2.00;0.45;;;4.30;69.10;;;;;;5044056;28;20068;-75
2022/04/10 03:28:53;;;;;;;1.23;0.47;;;4.00;70.50;;;;;;5038965;28;20035;-74
2022/04/10 03:31:20;;;;;;;1.17;0.45;;;4.40;69.00;;;;;;5029441;28;20030;-74
2022/04/10 03:33:46;;;;;;;0.93;0.40;;;4.30;69.40;;;;;;5037413;28;20126;-74
2022/04/10 03:36:13;;;;;;;1.98;0.70;;;4.50;68.40;;;;;;5036251;28;20044;-74
2022/04/10 03:38:38;;;;;;;1.17;0.70;;;4.50;68.50;;;;;;5035150;28;20032;-74
2022/04/10 03:41:04;;;;;;;1.77;0.50;;;4.40;69.10;;;;;;5048750;28;20037;-75
2022/04/10 03:43:32;;;;;;;0.95;0.50;;;4.10;69.00;;;;;;5043355;28;20388;-74
2022/04/10 03:45:58;;;;;;;1.35;0.63;;;4.20;69.30;;;;;;5038199;28;20037;-74
2022/04/10 03:48:23;;;;;;;1.20;0.60;;;4.20;68.90;;;;;;5041122;28;20040;-74
2022/04/10 03:50:49;;;;;;;1.00;0.50;;;4.10;69.00;;;;;;5032027;28;20016;-74
2022/04/10 03:53:15;;;;;;;1.17;0.65;;;4.10;69.10;;;;;;5049105;28;20033;-74
2022/04/10 03:55:41;;;;;;;1.60;0.68;;;4.20;69.20;;;;;;5044775;28;20526;-74
2022/04/10 03:58:07;;;;;;;2.70;0.90;;;4.10;69.00;;;;;;5029710;28;20395;-74
2022/04/10 04:00:32;;;;;;;1.00;0.45;;;3.80;69.70;;;;;;5044635;28;20025;-74
2022/04/10 04:02:58;;;;;;;1.67;0.32;;;3.90;69.70;;;;;;5025688;28;20479;-74
2022/04/10 04:05:24;;;;;;;1.08;0.40;;;4.00;69.40;;;;;;5025488;28;20418;-74
2022/04/10 04:07:50;;;;;;;2.28;0.60;;;4.10;69.00;;;;;;5042987;28;20525;-74
2022/04/10 04:10:15;;;;;;;1.05;0.52;;;3.90;69.20;;;;;;5025567;28;20033;-74
2022/04/10 04:12:41;;;;;;;0.75;0.43;;;3.80;70.00;;;;;;5043157;28;20097;-74
2022/04/10 04:15:07;;;;;;;0.73;0.60;;;4.00;69.50;;;;;;5045571;28;20025;-74
2022/04/10 04:17:33;;;;;;;4.93;0.82;;;4.20;69.20;;;;;;5029391;28;20025;-74
2022/04/10 04:19:59;;;;;;;2.08;0.50;;;4.10;69.40;;;;;;5044199;28;20025;-74
2022/04/10 04:22:24;;;;;;;1.75;0.50;;;4.30;68.70;;;;;;5032698;28;20499;-74
2022/04/10 04:24:50;;;;;;;1.63;0.43;;;4.10;69.10;;;;;;5033643;28;20100;-75
2022/04/10 04:27:15;;;;;;;1.58;0.57;;;4.00;70.10;;;;;;5024928;28;20033;-75
2022/04/10 04:29:41;;;;;;;0.82;0.35;;;4.00;70.50;;;;;;5041735;28;20041;-76
2022/04/10 04:32:07;;;;;;;1.65;0.65;;;3.80;69.90;;;;;;5025934;28;20112;-75
2022/04/10 04:34:33;;;;;;;1.35;0.43;;;4.00;69.90;;;;;;5040244;28;20449;-75
2022/04/10 04:36:59;;;;;;;1.02;0.43;;;3.90;69.50;;;;;;5045851;28;20068;-75
2022/04/10 04:39:24;;;;;;;2.20;0.55;;;3.60;70.30;;;;;;5032202;28;20087;-75
2022/04/10 04:41:50;;;;;;;1.55;0.60;;;3.50;71.10;;;;;;5025752;28;20119;-75
2022/04/10 04:44:16;;;;;;;0.68;0.30;;;3.80;69.50;;;;;;5036943;28;20063;-75
2022/04/10 04:46:42;;;;;;;1.95;0.50;;;3.70;69.70;;;;;;5043930;28;20103;-75
2022/04/10 04:49:08;;;;;;;0.75;0.38;;;3.70;69.40;;;;;;5036082;28;20040;-75
2022/04/10 04:51:36;;;;;;;1.95;0.90;;;3.70;69.90;;;;;;5045219;28;20501;-76
2022/04/10 04:54:03;;;;;;;1.95;0.80;;;3.80;69.70;;;;;;5026120;28;20040;-75
2022/04/10 04:56:28;;;;;;;1.73;0.73;;;4.10;69.20;;;;;;5025940;28;20029;-76
2022/04/10 04:58:54;;;;;;;2.55;0.80;;;4.10;69.40;;;;;;5025912;28;20472;-76
2022/04/10 05:01:20;;;;;;;1.35;0.50;;;4.20;68.80;;;;;;5035335;28;20040;-76
2022/04/10 05:03:46;;;;;;;3.50;0.50;;;4.30;68.80;;;;;;5045627;28;20871;-76
2022/04/10 05:06:11;;;;;;;0.90;0.50;;;4.20;69.20;;;;;;5036743;28;20096;-75
2022/04/10 05:08:37;;;;;;;0.40;0.30;;;3.80;70.20;;;;;;5034830;28;20029;-75
2022/04/10 05:11:03;;;;;;;1.13;0.60;;;3.90;70.50;;;;;;5038851;28;20108;-75
2022/04/10 05:13:28;;;;;;;1.17;0.50;;;4.00;70.00;;;;;;5028400;28;20029;-75
2022/04/10 05:15:54;;;;;;;2.03;0.70;;;4.20;69.60;;;;;;5027529;28;20029;-75
2022/04/10 05:18:20;;;;;;;0.40;0.35;;;4.00;70.40;;;;;;5034887;28;20048;-75
2022/04/10 05:20:47;;;;;;;2.35;0.60;;;3.60;72.10;;;;;;5043139;28;20079;-75
2022/04/10 05:23:18;;;;;;;2.42;0.50;;;3.80;71.10;;;;;;5030652;28;20048;-75
2022/04/10 05:25:44;;;;;;;2.42;0.52;;;4.00;70.50;;;;;;5048031;28;20037;-75
2022/04/10 05:28:09;;;;;;;3.55;0.65;;;4.20;69.70;;;;;;5046016;28;20055;-75
2022/04/10 05:30:35;;;;;;;1.90;1.10;;;4.10;69.90;;;;;;5048473;28;20040;-75
2022/04/10 05:33:01;;;;;;;2.00;0.57;;;4.20;69.90;;;;;;5044414;28;20527;-75
2022/04/10 05:35:26;;;;;;;2.53;0.70;;;4.00;69.50;;;;;;5028163;28;20632;-75
2022/04/10 05:37:52;;;;;;;1.38;0.60;;;4.30;68.50;;;;;;5029163;28;20021;-75
2022/04/10 05:40:18;;;;;;;2.15;0.60;;;4.70;67.70;;;;;;5027842;28;20844;-74
2022/04/10 05:42:45;;;;;;;4.13;0.60;;;4.70;68.70;;;;;;5033671;28;20033;-73
2022/04/10 05:45:11;;;;;;;2.50;0.65;;;4.70;68.50;;;;;;5048292;28;20029;-73
2022/04/10 05:47:38;;;;;;;1.45;0.73;;;4.40;74.00;;;;;;5043256;28;20033;-74
2022/04/10 05:50:04;;;;;;;3.25;1.10;;;4.20;75.60;;;;;;5027593;28;20037;-73
2022/04/10 05:52:30;;;;;;;2.47;0.93;;;4.30;75.60;;;;;;5028619;28;20044;-73
2022/04/10 05:54:59;;;;;;;1.63;0.77;;;4.00;74.20;;;;;;5027747;28;20026;-73
2022/04/10 05:57:25;;;;;;;1.45;0.63;;;4.10;73.80;;;;;;5029021;28;20037;-73
2022/04/10 05:59:50;;;;;;;1.98;0.68;;;4.30;74.80;;;;;;5047606;28;20025;-73
2022/04/10 06:02:16;;;;;;;3.90;0.60;;;4.20;72.70;;;;;;5047145;28;20025;-73
2022/04/10 06:04:41;;;;;;;3.97;1.13;;;4.20;71.90;;;;;;5045619;28;20532;-73
2022/04/10 06:07:07;;;;;;;1.75;0.47;;;4.20;73.30;;;;;;5044393;28;20036;-73
2022/04/10 06:09:33;;;;;;;2.15;1.02;;;4.30;71.30;;;;;;5047146;28;20103;-73
2022/04/10 06:11:59;;;;;;;1.15;0.50;;;4.40;72.50;;;;;;5030086;28;20036;-73
2022/04/10 06:14:24;;;;;;;1.63;0.57;;;4.50;73.40;;;;;;5038527;28;20323;-73
2022/04/10 06:16:50;;;;;;;1.90;0.75;;;4.60;71.40;;;;;;5033854;28;20443;-73
2022/04/10 06:19:19;;;;;;;0.63;0.30;;;4.50;72.20;;;;;;5028604;28;20427;-73
2022/04/10 06:21:45;;;;;;;1.60;0.63;;;4.70;71.00;;;;;;5027241;28;20039;-73
2022/04/10 06:24:11;;;;;;;1.27;0.70;;;4.80;70.80;;;;;;5035797;28;20108;-73
2022/04/10 06:26:36;;;;;;;2.53;0.57;;;4.80;71.30;;;;;;5035915;28;20444;-73
2022/04/10 06:29:03;;;;;;;2.65;0.75;;;4.90;69.80;;;;;;5028347;28;20142;-73
2022/04/10 06:31:28;;;;;;;1.20;0.52;;;5.10;70.10;;;;;;5027271;28;20030;-73
2022/04/10 06:33:56;;;;;;;1.33;0.50;;;5.10;71.90;;;;;;5031839;28;20125;-73
2022/04/10 06:36:22;;;;;;;0.77;0.50;;;5.20;69.00;;;;;;5038002;28;20118;-73
2022/04/10 06:38:49;;;;;;;3.60;0.65;;;5.40;67.20;;;;;;5028639;28;20422;-73
2022/04/10 06:41:15;;;;;;;0.90;0.40;;;5.70;66.50;;;;;;5027139;28;20030;-73
2022/04/10 06:43:41;;;;;;;1.75;0.68;;;5.80;68.00;;;;;;5033901;28;20021;-73
2022/04/10 06:46:06;;;;;;;3.47;0.50;;;5.90;68.10;;;;;;5045036;28;20107;-73
2022/04/10 06:48:35;;;;;;;1.92;0.63;;;7.90;67.80;;;;;;5036510;28;20105;-73
2022/04/10 06:51:01;;;;;;;2.63;0.82;;;9.60;62.80;;;;;;5041333;28;20040;-74
2022/04/10 06:53:27;;;;;;;1.58;0.70;;;11.40;58.60;;;;;;5047137;28;20029;-74
2022/04/10 06:55:52;;;;;;;1.75;0.57;;;12.30;56.30;;;;;;5041157;28;20090;-74
2022/04/10 06:58:19;;;;;;;2.92;0.88;;;13.90;55.60;;;;;;5046859;28;20044;-74
2022/04/10 07:00:45;;;;;;;7.70;2.25;;;15.60;55.20;;;;;;5046847;28;20048;-74
2022/04/10 07:03:11;;;;;;;10.40;4.63;;;15.00;53.60;;;;;;5046277;28;20371;-74
2022/04/10 07:05:37;;;;;;;6.05;1.50;;;15.20;53.10;;;;;;5043466;28;20064;-74
2022/04/10 07:08:03;;;;;;;5.85;3.28;;;14.80;52.20;;;;;;5043954;28;20067;-74
2022/04/10 07:10:29;;;;;;;7.90;4.28;;;15.50;51.50;;;;;;5046468;28;20073;-74
2022/04/10 07:12:54;;;;;;;3.80;1.85;;;16.40;51.60;;;;;;5045872;28;20021;-74
2022/04/10 07:15:20;;;;;;;4.22;1.58;;;17.30;50.90;;;;;;5026922;28;20025;-74
2022/04/10 07:17:46;;;;;;;5.00;1.73;;;16.10;52.40;;;;;;5026724;28;20365;-74
2022/04/10 07:20:12;;;;;;;4.60;1.40;;;16.80;51.90;;;;;;5030734;28;20138;-74
2022/04/10 07:25:23;;;;;;;1.33;0.60;;;15.80;51.70;;;;;;5038131;28;20091;-74
2022/04/10 07:27:48;;;;;;;3.42;0.73;;;14.30;52.20;;;;;;5050555;28;20036;-74
2022/04/10 07:30:14;;;;;;;2.30;0.73;;;11.20;55.10;;;;;;5048666;28;20056;-74
2022/04/10 07:32:40;;;;;;;1.48;0.57;;;9.30;56.90;;;;;;5043215;28;20516;-75
2022/04/10 07:35:06;;;;;;;2.58;0.50;;;8.70;58.50;;;;;;5045098;28;20036;-75
2022/04/10 07:37:32;;;;;;;1.45;0.50;;;8.40;59.60;;;;;;5050569;28;20082;-75
2022/04/10 07:39:58;;;;;;;1.80;0.70;;;8.30;60.60;;;;;;5050352;28;20028;-75
2022/04/10 07:42:23;;;;;;;2.85;1.35;;;8.00;61.60;;;;;;5049292;28;20454;-75
2022/04/10 07:44:49;;;;;;;3.40;1.52;;;7.90;64.50;;;;;;5049369;28;20033;-75
2022/04/10 07:47:27;;;;;;;2.90;0.77;;;7.80;67.40;;;;;;5049517;28;20147;-75
2022/04/10 07:49:54;;;;;;;1.85;0.40;;;7.90;61.90;;;;;;5049788;28;20194;-75
2022/04/10 07:52:20;;;;;;;1.35;0.45;;;8.00;60.70;;;;;;5047456;28;20040;-75
2022/04/10 07:54:47;;;;;;;1.30;0.73;;;8.20;61.30;;;;;;5034550;28;20028;-74
2022/04/10 07:57:13;;;;;;;1.75;0.57;;;8.50;62.20;;;;;;5034099;28;20033;-74
2022/04/10 07:59:38;;;;;;;1.95;0.75;;;8.50;61.10;;;;;;5042655;28;20497;-75
2022/04/10 08:02:04;;;;;;;1.85;0.68;;;8.40;61.40;;;;;;5031344;28;20241;-74
2022/04/10 08:04:30;;;;;;;2.40;0.88;;;8.40;60.70;;;;;;5026300;28;20045;-74
2022/04/10 08:06:55;;;;;;;3.03;0.75;;;8.20;60.60;;;;;;5026588;28;20462;-74
2022/04/10 08:09:21;;;;;;;3.00;0.90;;;8.10;60.90;;;;;;5026878;28;20033;-74
2022/04/10 08:11:47;;;;;;;1.60;0.80;;;8.30;61.80;;;;;;5026841;28;20687;-74
2022/04/10 08:14:12;;;;;;;2.03;0.68;;;8.30;61.70;;;;;;5026656;28;20060;-75
2022/04/10 08:16:38;;;;;;;1.75;0.60;;;8.40;62.20;;;;;;5026705;28;20025;-75
2022/04/10 08:19:04;;;;;;;1.40;0.70;;;8.30;60.30;;;;;;5026552;28;20084;-74
2022/04/10 08:21:29;;;;;;;1.60;0.60;;;8.40;61.00;;;;;;5026849;28;20037;-75
2022/04/10 08:23:55;;;;;;;1.42;0.65;;;8.50;63.10;;;;;;5026967;28;20607;-75
2022/04/10 08:26:21;;;;;;;2.33;1.60;;;8.60;64.30;;;;;;5024816;28;20486;-74
2022/04/10 08:28:46;;;;;;;1.85;0.90;;;8.60;67.20;;;;;;5026401;28;20033;-75
2022/04/10 08:31:12;;;;;;;3.63;1.70;;;8.70;65.00;;;;;;5026310;28;20021;-75
2022/04/10 08:33:37;;;;;;;1.98;0.85;;;8.80;64.60;;;;;;5026280;28;20060;-75
2022/04/10 08:36:03;;;;;;;2.30;0.63;;;8.90;63.60;;;;;;5025580;28;20021;-75
2022/04/10 08:38:29;;;;;;;4.90;0.70;;;9.10;62.60;;;;;;5026023;28;20451;-75
2022/04/10 08:41:03;;;;;;;2.10;0.85;;;8.90;61.80;;;;;;5026349;28;20080;-75
2022/04/10 08:43:30;;;;;;;1.60;0.77;;;8.80;61.40;;;;;;5026213;28;20033;-74
2022/04/10 08:45:57;;;;;;;1.27;0.50;;;8.90;61.50;;;;;;5025608;28;20490;-75
2022/04/10 08:48:26;;;;;;;1.52;0.55;;;9.10;61.80;;;;;;5026290;28;20109;-74
2022/04/10 08:50:57;;;;;;;1.23;0.50;;;9.10;60.10;;;;;;5026353;28;20124;-75
2022/04/10 08:53:24;;;;;;;1.50;0.50;;;11.40;60.20;;;;;;5026236;28;20044;-75
2022/04/10 08:55:50;;;;;;;6.07;1.27;;;13.90;59.30;;;;;;5025910;28;20037;-75
2022/04/10 08:58:16;;;;;;;2.45;0.85;;;14.60;55.30;;;;;;5026088;28;20112;-75
2022/04/10 09:00:43;;;;;;;1.60;0.68;;;15.80;55.40;;;;;;5026079;28;20472;-75
2022/04/10 09:03:08;;;;;;;1.08;0.47;;;16.20;52.90;;;;;;5025941;28;20104;-75
2022/04/10 09:05:34;;;;;;;2.55;0.93;;;15.30;54.20;;;;;;5025422;28;20057;-75
2022/04/10 09:08:14;;;;;;;1.73;0.70;;;16.10;53.90;;;;;;5025639;28;20075;-75
2022/04/10 09:11:08;;;;;;;2.83;0.90;;;15.90;55.00;;;;;;5025557;28;20068;-75
2022/04/10 09:13:37;;;;;;;3.75;0.93;;;16.20;53.80;;;;;;5025629;28;20072;-75
2022/04/10 09:16:10;;;;;;;0.60;0.43;;;16.00;54.40;;;;;;5024690;28;20021;-75
2022/04/10 09:18:50;;;;;;;4.07;0.98;;;16.60;51.40;;;;;;5025491;28;20088;-75
2022/04/10 09:21:17;;;;;;;2.05;0.73;;;17.10;53.40;;;;;;5025153;28;20040;-75
2022/04/10 09:23:46;;;;;;;2.53;0.98;;;16.90;52.50;;;;;;5025750;28;20028;-75
2022/04/10 09:26:13;;;;;;;4.97;1.52;;;16.00;51.20;;;;;;5025674;28;20053;-75
2022/04/10 09:28:44;;;;;;;1.73;0.85;;;15.70;52.60;;;;;;5025382;28;20022;-75
2022/04/10 09:31:29;;;;;;;1.40;0.50;;;15.20;53.60;;;;;;5025117;28;20036;-75
2022/04/10 09:33:55;;;;;;;;;;;14.60;52.60;;;;;;5025675;28;20040;-75
2022/04/10 09:36:32;;;;;;;2.45;0.60;;;13.30;54.20;;;;;;5025351;28;20872;-75
2022/04/10 09:38:59;;;;;;;2.58;0.43;;;12.10;53.80;;;;;;5025162;28;20029;-75
2022/04/10 09:41:24;;;;;;;0.95;0.30;;;11.90;56.20;;;;;;5025166;28;20041;-75
2022/04/10 09:43:50;;;;;;;1.60;0.68;;;11.50;55.50;;;;;;5025136;28;20025;-76
2022/04/10 09:46:16;;;;;;;1.75;0.80;;;11.60;55.10;;;;;;5024978;28;20021;-75
2022/04/10 09:48:41;;;;;;;1.77;0.60;;;11.60;55.40;;;;;;5025131;28;20071;-75
2022/04/10 09:51:10;;;;;;;1.23;0.50;;;11.70;54.80;;;;;;5025167;28;20026;-76
2022/04/10 09:53:36;;;;;;;1.00;0.45;;;11.70;53.00;;;;;;5025310;28;20102;-75
2022/04/10 09:56:05;;;;;;;2.95;0.35;;;11.90;53.30;;;;;;5025076;28;20029;-75
2022/04/10 09:58:32;;;;;;;2.17;0.60;;;12.00;52.90;;;;;;5024378;28;20593;-75
2022/04/10 10:00:59;;;;;;;0.60;0.40;;;11.70;50.90;;;;;;5024899;28;20057;-75
2022/04/10 10:03:29;;;;;;;2.00;0.60;;;12.00;52.40;;;;;;5024549;28;20541;-75
2022/04/10 10:05:57;;;;;;;3.40;0.60;;;12.30;53.30;;;;;;5024530;28;20052;-75
2022/04/10 10:08:24;;;;;;;1.08;0.60;;;12.70;53.30;;;;;;5024605;28;20370;-75
2022/04/10 10:10:49;;;;;;;0.75;0.35;;;12.70;52.40;;;;;;5024099;28;20112;-75
2022/04/10 10:13:16;;;;;;;2.85;0.73;;;12.40;52.50;;;;;;5024373;28;20160;-75
2022/04/10 10:15:43;;;;;;;2.50;0.68;;;12.40;53.70;;;;;;5024834;28;20079;-75
2022/04/10 10:18:13;;;;;;;1.88;0.43;;;12.40;53.80;;;;;;5024992;28;20036;-75
2022/04/10 10:20:42;;;;;;;2.85;0.88;;;12.30;53.00;;;;;;5024757;28;20029;-75
2022/04/10 10:23:10;;;;;;;4.80;0.60;;;12.30;53.40;;;;;;5024327;28;20470;-75
2022/04/10 10:25:54;;;;;;;1.77;0.40;;;12.60;54.60;;;;;;5024370;28;20105;-74
2022/04/10 10:28:41;;;;;;;2.42;0.75;;;12.40;53.10;;;;;;5026861;28;20104;-75
2022/04/10 10:31:25;;;;;;;1.40;0.30;;;13.30;52.90;;;;;;5027456;28;20064;-75
2022/04/10 10:34:10;;;;;;;1.20;0.50;;;13.60;52.40;;;;;;5027288;28;20064;-75
2022/04/10 10:36:36;;;;;;;7.20;0.90;;;13.70;54.50;;;;;;5025202;28;20029;-75
2022/04/10 10:39:04;;;;;;;1.45;0.60;;;13.20;53.90;;;;;;5025703;28;20047;-74
2022/04/10 10:41:33;;;;;;;1.92;0.73;;;13.30;53.90;;;;;;5025915;28;20034;-75
2022/04/10 10:44:15;;;;;;;1.25;0.40;;;13.60;54.70;;;;;;5027184;28;20057;-75
2022/04/10 10:46:57;;;;;;;1.27;0.50;;;13.40;53.20;;;;;;5027268;28;20464;-74
2022/04/10 10:49:23;;;;;;;2.17;0.82;;;13.20;50.30;;;;;;5027055;28;20418;-75
2022/04/10 10:51:50;;;;;;;2.75;0.70;;;13.30;53.90;;;;;;5027057;28;20026;-75
2022/04/10 10:54:25;;;;;;;2.97;0.90;;;13.60;55.90;;;;;;5026892;28;20032;-74
2022/04/10 10:56:50;;;;;;;;;;;13.80;55.70;;;;;;5027409;28;20541;-75
2022/04/10 10:59:26;;;;;;;1.52;0.60;;;13.60;52.20;;;;;;5027938;28;19909;-75
2022/04/10 11:01:53;;;;;;;1.35;0.60;;;13.40;51.00;;;;;;5031221;28;20105;-75
2022/04/10 11:04:20;;;;;;;0.52;0.30;;;13.70;51.50;;;;;;5031027;28;20539;-75
2022/04/10 11:06:50;;;;;;;1.48;0.65;;;13.90;51.50;;;;;;5030810;28;20029;-75
2022/04/10 11:09:20;;;;;;;2.35;0.70;;;13.80;50.60;;;;;;5031015;28;20029;-75
2022/04/10 11:11:46;;;;;;;5.82;2.55;;;13.90;53.70;;;;;;5030966;28;20029;-75
2022/04/10 11:14:32;;;;;;;3.08;0.88;;;14.10;56.30;;;;;;5031081;28;20088;-75
2022/04/10 11:17:16;;;;;;;4.28;1.45;;;13.90;54.10;;;;;;5031188;28;20041;-75
2022/04/10 11:19:47;;;;;;;1.58;0.55;;;14.10;53.40;;;;;;5034121;28;20021;-75
2022/04/10 11:22:19;;;;;;;3.50;0.75;;;14.10;52.70;;;;;;5042806;28;20101;-77
2022/04/10 11:24:45;;;;;;;7.72;2.00;;;14.00;52.60;;;;;;5030634;28;20082;-75
2022/04/10 11:27:13;;;;;;;1.35;0.47;;;14.60;52.20;;;;;;5031732;28;20052;-75
2022/04/10 11:29:54;;;;;;;2.85;1.00;;;14.60;52.30;;;;;;5038969;28;20124;-73
2022/04/10 11:32:21;;;;;;;5.68;1.15;;;14.30;52.80;;;;;;5033729;28;20035;-74
2022/04/10 11:34:58;;;;;;;3.17;1.23;;;14.30;52.80;;;;;;5033038;28;20056;-73
2022/04/10 11:37:23;;;;;;;1.35;0.50;;;14.80;52.20;;;;;;5048168;28;20135;-73
2022/04/10 11:39:55;;;;;;;1.75;0.50;;;14.90;52.80;;;;;;5050269;28;20032;-74
2022/04/10 11:42:21;;;;;;;3.05;1.00;;;14.50;49.80;;;;;;5047695;28;20033;-75
2022/04/10 11:44:49;;;;;;;1.10;0.40;;;14.80;49.90;;;;;;5038559;28;20486;-74
2022/04/10 11:47:15;;;;;;;2.92;0.65;;;15.00;50.10;;;;;;5048940;28;20108;-74
2022/04/10 11:49:49;;;;;;;2.40;0.65;;;15.10;49.00;;;;;;5048454;28;20035;-75
2022/04/10 11:52:19;;;;;;;2.75;0.43;;;15.00;49.30;;;;;;5043161;28;20032;-73
2022/04/10 11:54:45;;;;;;;1.77;0.60;;;14.60;49.10;;;;;;5049732;28;20086;-74
2022/04/10 11:57:11;;;;;;;1.92;0.32;;;14.80;50.00;;;;;;5049301;28;20020;-73
2022/04/10 11:59:43;;;;;;;3.03;0.60;;;14.80;48.40;;;;;;5050112;28;20036;-74
2022/04/10 12:02:10;;;;;;;1.85;0.70;;;15.00;51.80;;;;;;5049411;28;20175;-74
2022/04/10 12:04:37;;;;;;;0.98;0.40;;;15.20;52.90;;;;;;5049898;28;20044;-74
2022/04/10 12:07:13;;;;;;;1.23;0.57;;;14.80;49.70;;;;;;5049768;28;20343;-74
2022/04/10 12:09:40;;;;;;;2.38;0.47;;;15.10;52.80;;;;;;5049472;28;20510;-74
2022/04/10 12:12:06;;;;;;;1.92;0.68;;;14.80;50.00;;;;;;5048585;28;20043;-74
2022/04/10 12:14:31;;;;;;;2.55;0.52;;;15.00;53.20;;;;;;5050083;28;20056;-74
2022/04/10 12:16:57;;;;;;;1.15;0.47;;;15.40;54.50;;;;;;5049266;28;20118;-74
2022/04/10 12:19:36;;;;;;;2.05;0.55;;;15.30;52.70;;;;;;5044936;28;20037;-74
2022/04/10 12:22:03;;;;;;;1.17;0.47;;;15.20;52.30;;;;;;5035365;28;20118;-74
2022/04/10 12:24:28;;;;;;;1.40;0.40;;;15.30;52.20;;;;;;5032170;28;20029;-74
2022/04/10 12:26:56;;;;;;;1.70;0.40;;;15.30;53.40;;;;;;5041806;28;20538;-74
2022/04/10 12:29:22;;;;;;;2.03;0.52;;;15.10;51.20;;;;;;5044175;28;20049;-74
2022/04/10 12:31:49;;;;;;;1.05;0.40;;;15.20;51.40;;;;;;5042754;28;20127;-74
2022/04/10 12:34:14;;;;;;;1.27;0.47;;;15.30;52.70;;;;;;5045528;28;20037;-74
2022/04/10 12:36:51;;;;;;;0.60;0.30;;;15.30;53.30;;;;;;5040205;28;20035;-74
2022/04/10 12:39:28;;;;;;;1.90;0.80;;;15.10;50.40;;;;;;5029251;28;20060;-74
2022/04/10 12:42:09;;;;;;;1.23;0.60;;;15.20;51.90;;;;;;5026078;28;20648;-75
2022/04/10 12:44:37;;;;;;;1.17;0.55;;;15.50;52.10;;;;;;5026528;28;20049;-73
2022/04/10 12:47:04;;;;;;;1.60;0.52;;;15.40;50.80;;;;;;5025447;28;20017;-73
2022/04/10 12:49:30;;;;;;;0.30;0.20;;;15.20;49.70;;;;;;5026414;28;20080;-73
2022/04/10 12:52:00;;;;;;;1.13;0.60;;;15.10;50.10;;;;;;5025703;28;20589;-73
2022/04/10 12:54:39;;;;;;;0.82;0.30;;;15.30;53.60;;;;;;5045387;28;20033;-73
2022/04/10 12:57:06;;;;;;;0.98;0.43;;;15.60;52.50;;;;;;5043362;28;20033;-73